createdAt,value
2022-11-26T00:03:15.082Z,1032.4
2022-11-26T00:08:57.944Z,1032.5
2022-11-26T00:14:08.828Z,1032.5
2022-11-26T00:19:58.497Z,1032.5
2022-11-26T00:25:30.981Z,1032.6
2022-11-26T00:30:43.046Z,1032.6
2022-11-26T00:36:12.445Z,1032.7
2022-11-26T00:41:57.777Z,1032.5
2022-11-26T00:47:35.332Z,1032.6
2022-11-26T00:53:14.992Z,1032.7
2022-11-26T00:58:39.559Z,1032.7
2022-11-26T01:03:57.874Z,1032.8
2022-11-26T01:09:37.336Z,1033
2022-11-26T01:15:12.164Z,1033.1
2022-11-26T01:20:53.400Z,1033.1
2022-11-26T01:26:08.198Z,1033.2
2022-11-26T01:31:31.073Z,1033.3
2022-11-26T01:37:10.361Z,1033.5
2022-11-26T01:42:55.270Z,1033.6
2022-11-26T01:48:10.323Z,1033.7
2022-11-26T01:53:57.418Z,1033.7
2022-11-26T01:59:36.437Z,1033.7
2022-11-26T02:04:49.673Z,1033.9
2022-11-26T02:10:19.126Z,1033.9
2022-11-26T02:16:08.195Z,1034
2022-11-26T02:21:38.759Z,1034
2022-11-26T02:27:09.512Z,1034.1
2022-11-26T02:32:18.657Z,1034.1
2022-11-26T02:37:59.981Z,1034
2022-11-26T02:43:26.404Z,1034.2
2022-11-26T02:49:13.402Z,1034
2022-11-26T02:54:34.044Z,1033.9
2022-11-26T03:00:17.211Z,1034.1
2022-11-26T03:05:37.725Z,1034
2022-11-26T03:11:19.115Z,1034
2022-11-26T03:16:39.738Z,1034
2022-11-26T03:22:33.920Z,1034
2022-11-26T03:28:06.652Z,1034
2022-11-26T03:33:38.916Z,1034
2022-11-26T03:38:46.684Z,1033.9
2022-11-26T03:44:29.318Z,1034.1
2022-11-26T03:50:07.810Z,1034.2
2022-11-26T03:55:24.266Z,1034.1
2022-11-26T04:01:13.703Z,1034.2
2022-11-26T04:06:46.694Z,1034
2022-11-26T04:12:10.685Z,1034.1
2022-11-26T04:17:33.385Z,1034.3
2022-11-26T04:23:18.481Z,1034.5
2022-11-26T04:28:43.327Z,1034.3
2022-11-26T04:34:15.211Z,1034.1
2022-11-26T04:39:44.891Z,1034.2
2022-11-26T04:45:05.065Z,1034.3
2022-11-26T04:50:35.766Z,1034.4
2022-11-26T04:56:14.376Z,1034.4
2022-11-26T05:01:49.976Z,1034.5
2022-11-26T05:07:32.268Z,1034.7
2022-11-26T05:12:58.937Z,1034.7
2022-11-26T05:18:17.767Z,1034.8
2022-11-26T05:24:03.318Z,1034.9
2022-11-26T05:29:39.745Z,1034.9
2022-11-26T05:35:07.449Z,1034.8
2022-11-26T05:40:35.489Z,1034.8
2022-11-26T05:46:18.728Z,1035.1
2022-11-26T05:51:29.125Z,1034.8
2022-11-26T05:57:16.132Z,1034.8
2022-11-26T06:02:33.264Z,1034.8
2022-11-26T06:08:13.393Z,1035
2022-11-26T06:13:47.043Z,1035.1
2022-11-26T06:19:11.634Z,1035.1
2022-11-26T06:24:41.342Z,1035.1
2022-11-26T06:30:08.292Z,1035.1
2022-11-26T06:36:01.639Z,1035.4
2022-11-26T06:41:26.569Z,1035.3
2022-11-26T06:47:06.629Z,1035.4
2022-11-26T06:52:17.162Z,1035.4
2022-11-26T06:57:49.543Z,1035.5
2022-11-26T07:03:42.092Z,1035.4
2022-11-26T07:08:50.891Z,1035.4
2022-11-26T07:14:17.204Z,1035.5
2022-11-26T07:19:50.316Z,1035.6
2022-11-26T07:25:27.004Z,1035.6
2022-11-26T07:31:05.254Z,1035.7
2022-11-26T07:36:32.051Z,1035.7
2022-11-26T07:42:21.215Z,1036
2022-11-26T07:47:41.121Z,1036
2022-11-26T07:53:23.108Z,1036.1
2022-11-26T07:58:57.900Z,1036.2
2022-11-26T08:04:32.516Z,1036.2
2022-11-26T08:09:58.033Z,1036.2
2022-11-26T08:15:12.066Z,1036.1
2022-11-26T08:21:03.870Z,1036.1
2022-11-26T08:26:33.860Z,1036.2
2022-11-26T08:32:05.156Z,1036.2
2022-11-26T08:37:17.750Z,1036.1
2022-11-26T08:43:13.613Z,1036.2
2022-11-26T08:48:36.480Z,1036.2
2022-11-26T08:54:13.296Z,1036.1
2022-11-26T08:59:34.171Z,1036
2022-11-26T09:05:00.368Z,1036
2022-11-26T09:10:44.290Z,1036
2022-11-26T09:16:20.595Z,1036
2022-11-26T09:21:52.429Z,1036.1
2022-11-26T09:27:26.905Z,1036.2
2022-11-26T09:32:50.221Z,1036.2
2022-11-26T09:38:30.733Z,1036
2022-11-26T09:43:41.027Z,1036.3
2022-11-26T09:49:17.266Z,1036.2
2022-11-26T09:55:02.353Z,1036
2022-11-26T10:00:25.028Z,1036
2022-11-26T10:05:56.198Z,1035.9
2022-11-26T10:11:46.503Z,1035.7
2022-11-26T10:17:19.263Z,1035.6
2022-11-26T10:22:31.080Z,1035.5
2022-11-26T10:28:11.988Z,1035.3
2022-11-26T10:33:36.252Z,1035.4
2022-11-26T10:39:02.109Z,1035.4
2022-11-26T10:44:41.753Z,1035.3
2022-11-26T10:50:19.377Z,1035
2022-11-26T10:56:06.359Z,1035
2022-11-26T11:01:38.293Z,1034.8
2022-11-26T11:06:52.898Z,1034.8
2022-11-26T11:12:34.202Z,1034.6
2022-11-26T11:18:16.870Z,1034.6
2022-11-26T11:24:09.321Z,1034.3
2022-11-26T11:28:59.620Z,1034.3
2022-11-26T11:34:41.740Z,1034.2
2022-11-26T11:40:24.543Z,1034.1
2022-11-26T11:45:58.336Z,1034
2022-11-26T11:51:20.420Z,1034
2022-11-26T11:56:44.190Z,1034.1
2022-11-26T12:02:28.961Z,1033.9
2022-11-26T12:07:46.706Z,1033.8
2022-11-26T12:13:30.433Z,1033.7
2022-11-26T12:19:02.535Z,1033.6
2022-11-26T12:24:36.454Z,1033.5
2022-11-26T12:30:27.038Z,1033.5
2022-11-26T12:35:41.080Z,1033.4
2022-11-26T12:41:24.536Z,1033.3
2022-11-26T12:46:40.066Z,1033.3
2022-11-26T12:52:12.746Z,1033.3
2022-11-26T12:57:51.968Z,1033.2
2022-11-26T13:03:23.346Z,1033.2
2022-11-26T13:08:58.246Z,1033.2
2022-11-26T13:14:33.603Z,1033.1
2022-11-26T13:20:10.668Z,1033.1
2022-11-26T13:25:33.187Z,1033.2
2022-11-26T13:31:11.453Z,1033.1
2022-11-26T13:36:58.365Z,1033.1
2022-11-26T13:42:30.763Z,1032.9
2022-11-26T13:47:55.057Z,1032.7
2022-11-26T13:53:25.187Z,1032.7
2022-11-26T13:59:06.669Z,1032.8
2022-11-26T14:04:26.777Z,1032.8
2022-11-26T14:10:13.765Z,1032.8
2022-11-26T14:15:53.821Z,1032.9
2022-11-26T14:21:23.320Z,1032.9
2022-11-26T14:26:55.933Z,1032.9
2022-11-26T14:32:16.073Z,1033
2022-11-26T14:38:01.860Z,1033
2022-11-26T14:43:35.384Z,1033.2
2022-11-26T14:49:01.609Z,1033.3
2022-11-26T14:54:26.253Z,1033.4
2022-11-26T15:00:07.996Z,1033.4
2022-11-26T15:05:43.604Z,1033.4
2022-11-26T15:11:23.642Z,1033.4
2022-11-26T15:16:54.172Z,1033.2
2022-11-26T15:22:25.091Z,1033.3
2022-11-26T15:28:01.171Z,1033.4
2022-11-26T15:33:27.229Z,1033.4
2022-11-26T15:39:10.889Z,1033.4
2022-11-26T15:44:19.998Z,1033.5
2022-11-26T15:49:53.679Z,1033.6
2022-11-26T15:55:48.062Z,1033.5
2022-11-26T16:00:56.938Z,1033.5
2022-11-26T16:06:36.992Z,1033.6
2022-11-26T16:12:03.061Z,1033.8
2022-11-26T16:17:50.991Z,1033.9
2022-11-26T16:23:25.847Z,1033.9
2022-11-26T16:28:55.023Z,1034
2022-11-26T16:34:27.417Z,1033.9
2022-11-26T16:39:43.777Z,1034
2022-11-26T16:45:16.130Z,1034.1
2022-11-26T16:50:41.962Z,1034.1
2022-11-26T16:56:18.837Z,1034
2022-11-26T17:02:05.665Z,1033.9
2022-11-26T17:07:17.742Z,1034
2022-11-26T17:13:07.643Z,1034
2022-11-26T17:18:41.099Z,1034
2022-11-26T17:24:07.614Z,1033.9
2022-11-26T17:29:42.581Z,1033.9
2022-11-26T17:35:19.282Z,1034
2022-11-26T17:40:53.759Z,1034
2022-11-26T17:46:22.069Z,1034
2022-11-26T17:51:44.648Z,1034
2022-11-26T17:57:16.617Z,1034
2022-11-26T18:02:42.938Z,1034
2022-11-26T18:13:51.990Z,1034.1
2022-11-26T18:19:20.129Z,1034.2
2022-11-26T18:24:56.062Z,1034.2
2022-11-26T18:30:20.504Z,1034.4
2022-11-26T18:36:11.994Z,1034.5
2022-11-26T18:41:31.598Z,1034.4
2022-11-26T18:46:49.222Z,1034.4
2022-11-26T18:52:42.342Z,1034.4
2022-11-26T18:58:07.796Z,1034.3
2022-11-26T19:03:26.808Z,1034
2022-11-26T19:09:19.391Z,1033.9
2022-11-26T19:14:49.510Z,1034
2022-11-26T19:20:03.784Z,1034.2
2022-11-26T19:25:56.418Z,1034.1
2022-11-26T19:31:23.181Z,1034.2
2022-11-26T19:36:52.215Z,1034.2
2022-11-26T19:42:22.724Z,1034.2
2022-11-26T19:47:53.623Z,1034.3
2022-11-26T19:53:30.901Z,1034.2
2022-11-26T19:58:56.239Z,1034.3
2022-11-26T20:04:13.785Z,1034.4
2022-11-26T20:09:43.540Z,1034.3
2022-11-26T20:15:39.537Z,1034.4
2022-11-26T20:20:46.288Z,1034.3
2022-11-26T20:26:20.171Z,1034.5
2022-11-26T20:31:55.737Z,1034.7
2022-11-26T20:37:24.711Z,1034.5
2022-11-26T20:43:11.510Z,1034.3
2022-11-26T20:48:25.285Z,1034.2
2022-11-26T20:54:01.640Z,1034
2022-11-26T20:59:54.841Z,1034
2022-11-26T21:05:00.160Z,1034.1
2022-11-26T21:10:39.143Z,1034.2
2022-11-26T21:16:13.903Z,1034.1
2022-11-26T21:21:48.298Z,1034.1
2022-11-26T21:27:25.462Z,1034.1
2022-11-26T21:32:56.407Z,1034.2
2022-11-26T21:38:26.856Z,1034.1
2022-11-26T21:44:05.849Z,1034.2
2022-11-26T21:49:33.236Z,1034.2
2022-11-26T21:55:00.845Z,1034.1
2022-11-26T22:00:27.942Z,1034
2022-11-26T22:05:49.621Z,1034.3
2022-11-26T22:11:25.538Z,1034.1
2022-11-26T22:17:11.960Z,1034.3
2022-11-26T22:22:42.767Z,1034.5
2022-11-26T22:28:01.605Z,1034.5
2022-11-26T22:33:33.691Z,1034.5
2022-11-26T22:39:18.321Z,1034.6
2022-11-26T22:44:44.200Z,1034.6
2022-11-26T22:50:08.958Z,1034.6
2022-11-26T22:55:54.596Z,1034.6
2022-11-26T23:01:06.022Z,1034.7
2022-11-26T23:06:45.972Z,1034.7
2022-11-26T23:12:07.981Z,1034.7
2022-11-26T23:17:58.876Z,1034.7
2022-11-26T23:28:48.107Z,1034.8
2022-11-26T23:34:18.766Z,1034.8
2022-11-26T23:39:56.564Z,1034.7
2022-11-26T23:45:19.442Z,1034.6
2022-11-26T23:51:13.347Z,1034.5
2022-11-26T23:56:33.884Z,1034.4
